Share

Polacca, AZ (86042)

RAWS HOPI AZ US (MQHIA3) Elev 5579 ft | 35.86 °N, 110.61 °W | Change Station

Current weather conditions updated 35 minutes ago

Clear
Clear
47 °F
Feels Like 45 °F
N
4
Wind Variable Wind from NNW
Gusts 7.0 mph
Sunrise 5:43 AM
Sunset 6:58 PM
Moon Waning Gibbous

Today is forecast to be Cooler than yesterday.

Pressure 29.94 in
Visibility 10.0 miles
Clouds Clear
Windchill 45 °F
Dew Point 43 °F
Humidity 85%
Rainfall 0.00 in
Snow Depth Not available.
UV 0 out of 16
Pollen 8.80 out of 12
Air Quality Not available.
Flu Activity Local Activity
METAR KINW 190756Z AUTO 13004KT 10SM CLR 09/06 A3008 RMK AO2 SLP138 T00940056 TSNO

More Conditions Fewer Conditions

Pressure 29.94 in
Visibility 10.0 miles
Clouds Clear
Windchill 45 °F
Dew Point 43 °F
Humidity 85%
Rainfall 0.00 in
Snow Depth Not available.
UV 0 out of 16
Pollen 8.80 out of 12
Air Quality Not available.
Flu Activity Local Activity
METAR KINW 190756Z AUTO 13004KT 10SM CLR 09/06 A3008 RMK AO2 SLP138 T00940056 TSNO

More Conditions Fewer Conditions

10-Day Weather Forecast

Almanac

Astronomy

Apr. 19, 2014 Rise Set
Actual Time 5:43 AM MST 6:58 PM MST
Civil Twilight 5:16 AM MST 7:25 PM MST
Nautical Twilight 4:45 AM MST 7:56 PM MST
Astronomical Twilight 4:12 AM MST 8:30 PM MST
Moon 11:38 PM MST 9:09 AM MST
Length of Visible Light 14h 08m
Length of Day
13h 15m
Tomorrow will be 2m 6s longer.
Waning Gibbous, 81% of the Moon is Illuminated
Today
Waning Gibbous
Apr 22
Last Quarter
Apr 29
New
May 6
First Quarter
May 14
Full

Today's Extremes

State Highs State Lows

Community

  • Sunset Silhouettes
    Sunset Silhouettes
  • FL sunset Perico Isle
    FL sunset Perico Isle
  • Cloudy spring view
    Cloudy spring view
  • Old barn
    Old barn
  • What's for Lunch?
    What's for Lunch?

WunderPhotos

Upload Photos

1,702,670 photos uploaded!

WunderBlogs® & News

Nearby

Snow Depth

Station Depth Elevation
Mormon Mountain 0 in 7500 ft
Happy Jack 1 in 7630 ft
Snowslide Canyon 7 in 9730 ft
Heber 1 in 7640 ft
Promontory 1 in 7930 ft

Coastal Water Temperatures

Place Temperature
No Stations Reporting

Earthquake Activity

City Distance Mag. Time & Date
No recent earthquake activity has been reported nearby.
Minimum magnitude displayed is 2.5.

Nearby Weather Stations

Station Location Temp. Windchill Dew Point Humidity Wind Precip. Elev Updated Type
RAWS HOPI AZ, Kykotsmovi, AZ 47 °F 45 °F 43 °F 85% NNW  at  4 mph 0.00 in / hr 5579 ft 1:13 AM MST MADIS

Show More Stations Show Fewer Stations

What do you think?

We're not finished. Please let us know what you like, what you don't like, and what you are still missing.